Terminal Aerodrome Forecast
Issued by NWS

Home | Current Version | Previous Version | Graphics & Text | Print | Product List | Glossary On
Versions: 1 2 3 4 5 6 7 8 9 10 11 12 13
021
FTUS43 KMPX 181753
TAFRNH
TAF
KRNH 181753Z 1818/1918 17016G26KT P6SM OVC080
     FM190000 23007KT P6SM OVC100
     FM190200 29007KT P6SM OVC040
     FM190400 33007KT P6SM BKN030
     FM190700 34010KT P6SM OVC015 PROB30 1907/1913 6SM -SN OVC010
     FM191300 02018G23KT 2SM -SN BR OVC010=

USA.gov is the U.S. government's official web portal to all federal, state and local government web resources and services.